createdAt,value
2017-11-12T00:01:27.894Z,92.66
2017-11-12T00:03:59.706Z,92.68
2017-11-12T00:06:30.735Z,92.52
2017-11-12T00:09:02.256Z,92.38
2017-11-12T00:11:33.256Z,92.11
2017-11-12T00:14:04.460Z,92.28
2017-11-12T00:16:35.653Z,92.64
2017-11-12T00:19:07.109Z,92.41
2017-11-12T00:21:37.958Z,92.33
2017-11-12T00:24:14.443Z,92.12
2017-11-12T00:26:45.983Z,91.66
2017-11-12T00:29:17.614Z,91.50
2017-11-12T00:31:48.998Z,91.69
2017-11-12T00:34:20.455Z,91.74
2017-11-12T00:36:51.069Z,91.69
2017-11-12T00:39:23.397Z,91.84
2017-11-12T00:41:54.352Z,91.54
2017-11-12T00:44:25.898Z,91.48
2017-11-12T00:46:58.549Z,91.40
2017-11-12T00:49:29.878Z,91.26
2017-11-12T00:52:00.816Z,90.94
2017-11-12T00:54:32.882Z,91.16
2017-11-12T00:57:03.561Z,90.98
2017-11-12T00:59:34.518Z,90.97
2017-11-12T01:02:05.187Z,91.48
2017-11-12T01:04:36.416Z,91.26
2017-11-12T01:07:07.306Z,91.47
2017-11-12T01:09:42.286Z,91.09
2017-11-12T01:12:20.963Z,90.81
2017-11-12T01:14:51.748Z,91.11
2017-11-12T01:17:22.720Z,90.84
2017-11-12T01:19:53.926Z,91.37
2017-11-12T01:22:24.630Z,91.38
2017-11-12T01:24:57.746Z,91.37
2017-11-12T01:27:29.236Z,91.35
2017-11-12T01:30:00.923Z,91.71
2017-11-12T01:32:31.768Z,91.91
2017-11-12T01:35:02.750Z,91.93
2017-11-12T01:37:33.449Z,92.19
2017-11-12T01:40:09.506Z,92.08
2017-11-12T01:42:45.176Z,91.97
2017-11-12T01:45:16.369Z,92.12
2017-11-12T01:47:47.935Z,91.88
2017-11-12T01:50:20.622Z,91.95
2017-11-12T01:52:53.859Z,91.77
2017-11-12T01:55:29.367Z,92.08
2017-11-12T01:58:01.723Z,91.84
2017-11-12T02:00:32.996Z,91.64
2017-11-12T02:03:03.860Z,91.95
2017-11-12T02:05:34.609Z,91.45
2017-11-12T02:08:06.968Z,91.17
2017-11-12T02:10:37.913Z,91.17
2017-11-12T02:13:09.675Z,91.27
2017-11-12T02:15:47.211Z,91.31
2017-11-12T02:18:18.260Z,91.61
2017-11-12T02:20:52.066Z,91.79
2017-11-12T02:23:23.505Z,91.47
2017-11-12T02:25:54.813Z,91.44
2017-11-12T02:28:26.609Z,91.60
2017-11-12T02:30:57.720Z,91.39
2017-11-12T02:33:50.805Z,91.34
2017-11-12T02:36:24.268Z,91.39
2017-11-12T02:38:59.830Z,90.93
2017-11-12T02:41:30.830Z,91.19
2017-11-12T02:44:01.746Z,91.39
2017-11-12T02:46:32.653Z,91.34
2017-11-12T02:49:07.778Z,91.11
2017-11-12T02:51:38.660Z,91.07
2017-11-12T02:54:10.071Z,91.11
2017-11-12T02:56:44.383Z,90.84
2017-11-12T02:59:18.537Z,90.85
2017-11-12T03:01:55.893Z,90.94
2017-11-12T03:04:28.488Z,90.91
2017-11-12T03:06:59.916Z,90.91
2017-11-12T03:09:46.027Z,90.63
2017-11-12T03:12:18.008Z,90.57
2017-11-12T03:14:51.121Z,90.77
2017-11-12T03:17:23.200Z,90.73
2017-11-12T03:19:54.076Z,90.65
2017-11-12T03:22:26.250Z,90.42
2017-11-12T03:24:57.748Z,90.46
2017-11-12T03:27:32.922Z,90.88
2017-11-12T03:30:10.256Z,90.92
2017-11-12T03:32:42.879Z,90.87
2017-11-12T03:35:13.906Z,91.00
2017-11-12T03:37:45.749Z,91.05
2017-11-12T03:40:17.795Z,90.74
2017-11-12T03:42:48.860Z,90.67
2017-11-12T03:45:19.927Z,91.35
2017-11-12T03:47:50.693Z,90.87
2017-11-12T03:50:21.987Z,90.86
2017-11-12T03:52:52.868Z,90.84
2017-11-12T03:55:23.697Z,91.00
2017-11-12T03:57:57.501Z,90.79
2017-11-12T04:00:28.919Z,90.45
2017-11-12T04:02:59.638Z,90.57
2017-11-12T04:05:30.491Z,90.84
2017-11-12T04:08:01.477Z,90.42
2017-11-12T04:10:44.504Z,90.45
2017-11-12T04:13:16.648Z,90.49
2017-11-12T04:15:54.922Z,90.52
2017-11-12T04:18:25.694Z,91.11
2017-11-12T04:20:56.685Z,90.86
2017-11-12T04:23:28.068Z,91.07
2017-11-12T04:25:58.852Z,90.86
2017-11-12T04:28:30.419Z,91.15
2017-11-12T04:31:01.353Z,91.54
2017-11-12T04:33:32.440Z,91.72
2017-11-12T04:36:03.982Z,91.67
2017-11-12T04:38:35.950Z,91.38
2017-11-12T04:41:07.705Z,91.11
2017-11-12T04:43:39.292Z,91.04
2017-11-12T04:46:11.226Z,90.89
2017-11-12T04:48:42.752Z,91.28
2017-11-12T04:51:13.698Z,91.02
2017-11-12T04:53:46.612Z,90.78
2017-11-12T04:56:19.703Z,91.17
2017-11-12T04:58:50.928Z,91.24
2017-11-12T05:01:22.430Z,91.31
2017-11-12T05:03:53.563Z,91.31
2017-11-12T05:06:28.200Z,91.52
2017-11-12T05:08:59.210Z,91.69
2017-11-12T05:11:30.100Z,92.22
2017-11-12T05:14:03.696Z,92.08
2017-11-12T05:16:36.388Z,92.09
2017-11-12T05:19:07.503Z,92.21
2017-11-12T05:21:38.652Z,92.29
2017-11-12T05:24:11.073Z,91.75
2017-11-12T05:26:42.220Z,92.51
2017-11-12T05:29:12.983Z,92.13
2017-11-12T05:31:44.400Z,92.45
2017-11-12T05:34:17.252Z,92.03
2017-11-12T05:36:50.657Z,91.69
2017-11-12T05:39:23.686Z,91.55
2017-11-12T05:41:55.813Z,91.86
2017-11-12T05:44:27.210Z,91.78
2017-11-12T05:46:58.232Z,91.92
2017-11-12T05:49:29.017Z,91.85
2017-11-12T05:52:01.546Z,91.65
2017-11-12T05:54:32.714Z,91.85
2017-11-12T05:57:04.542Z,91.82
2017-11-12T05:59:35.738Z,91.38
2017-11-12T06:02:06.500Z,91.69
2017-11-12T06:04:40.984Z,91.52
2017-11-12T06:07:15.810Z,90.97
2017-11-12T06:09:51.258Z,91.10
2017-11-12T06:12:31.785Z,91.70
2017-11-12T06:15:06.984Z,91.74
2017-11-12T06:17:53.692Z,91.38
2017-11-12T06:20:27.670Z,91.02
2017-11-12T06:22:59.751Z,91.07
2017-11-12T06:25:35.193Z,90.90
2017-11-12T06:28:10.969Z,91.21
2017-11-12T06:30:41.675Z,90.85
2017-11-12T06:33:12.719Z,90.82
2017-11-12T06:35:47.301Z,91.09
2017-11-12T06:38:18.380Z,91.04
2017-11-12T06:40:52.422Z,91.10
2017-11-12T06:43:27.342Z,90.72
2017-11-12T06:45:58.729Z,90.91
2017-11-12T06:48:50.826Z,90.89
2017-11-12T06:51:24.002Z,90.75
2017-11-12T06:53:57.324Z,90.90
2017-11-12T06:56:30.205Z,90.94
2017-11-12T06:59:00.937Z,91.13
2017-11-12T07:01:33.271Z,91.39
2017-11-12T07:04:04.257Z,91.35
2017-11-12T07:06:38.375Z,91.14
2017-11-12T07:09:10.016Z,91.10
2017-11-12T07:11:42.823Z,90.86
2017-11-12T07:14:13.997Z,91.07
2017-11-12T07:16:45.109Z,90.93
2017-11-12T07:19:16.473Z,90.84
2017-11-12T07:21:51.566Z,90.84
2017-11-12T07:24:22.388Z,91.04
2017-11-12T07:26:57.423Z,90.78
2017-11-12T07:29:29.134Z,90.84
2017-11-12T07:32:00.260Z,90.52
2017-11-12T07:34:31.562Z,90.55
2017-11-12T07:37:02.628Z,90.16
2017-11-12T07:39:33.817Z,89.96
2017-11-12T07:42:04.353Z,90.05
2017-11-12T07:44:37.293Z,89.79
2017-11-12T07:47:07.795Z,89.62
2017-11-12T07:49:40.216Z,89.58
2017-11-12T07:52:11.418Z,89.32
2017-11-12T07:54:42.570Z,89.00
2017-11-12T07:57:13.319Z,88.89
2017-11-12T07:59:44.835Z,88.89
2017-11-12T08:02:15.725Z,88.62
2017-11-12T08:04:46.545Z,88.56
2017-11-12T08:07:17.276Z,88.45
2017-11-12T08:09:49.379Z,88.17
2017-11-12T08:12:21.713Z,88.00
2017-11-12T08:14:54.241Z,88.24
2017-11-12T08:17:27.060Z,87.93
2017-11-12T08:20:00.209Z,87.60
2017-11-12T08:22:33.739Z,87.46
2017-11-12T08:25:13.636Z,87.71
2017-11-12T08:27:49.994Z,88.35
2017-11-12T08:30:24.346Z,87.62
2017-11-12T08:32:57.824Z,87.83
2017-11-12T08:35:33.307Z,87.63
2017-11-12T08:38:07.210Z,87.25
2017-11-12T08:40:42.208Z,87.10
2017-11-12T08:43:19.981Z,87.28
2017-11-12T08:45:57.603Z,87.61
2017-11-12T08:48:36.227Z,87.04
2017-11-12T08:51:18.095Z,86.98
2017-11-12T08:53:49.747Z,86.53
2017-11-12T08:56:22.744Z,86.26
2017-11-12T08:59:01.871Z,86.52
2017-11-12T09:01:48.015Z,85.37
2017-11-12T09:04:25.719Z,85.53
2017-11-12T09:07:03.334Z,85.63
2017-11-12T09:09:39.135Z,85.42
2017-11-12T09:12:29.207Z,85.63
2017-11-12T09:20:56.119Z,84.66
2017-11-12T09:23:33.538Z,84.73
2017-11-12T09:26:08.762Z,84.37
2017-11-12T09:28:41.860Z,84.13
2017-11-12T09:31:13.410Z,84.27
2017-11-12T09:33:45.009Z,85.62
2017-11-12T09:36:23.077Z,85.87
2017-11-12T09:38:54.646Z,85.11
2017-11-12T09:44:19.671Z,84.44
2017-11-12T09:46:54.777Z,83.72
2017-11-12T09:49:26.062Z,83.79
2017-11-12T09:51:57.433Z,82.80
2017-11-12T09:54:36.245Z,84.30
2017-11-12T09:57:07.956Z,85.47
2017-11-12T09:59:40.592Z,85.76
2017-11-12T10:02:11.779Z,85.32
2017-11-12T10:04:43.676Z,85.88
2017-11-12T10:07:14.559Z,86.74
2017-11-12T10:09:49.492Z,84.60
2017-11-12T10:12:34.138Z,84.36
2017-11-12T10:15:05.450Z,83.44
2017-11-12T10:17:36.617Z,84.32
2017-11-12T10:20:14.948Z,83.45
2017-11-12T10:22:50.953Z,84.00
2017-11-12T10:25:22.973Z,83.29
2017-11-12T10:28:01.020Z,83.30
2017-11-12T10:30:33.113Z,83.41
2017-11-12T10:33:04.161Z,83.78
2017-11-12T10:35:41.553Z,83.08
2017-11-12T10:38:16.878Z,83.53
2017-11-12T10:40:56.126Z,83.90
2017-11-12T10:43:35.257Z,83.82
2017-11-12T10:46:06.505Z,83.64
2017-11-12T10:48:39.902Z,83.90
2017-11-12T10:51:15.556Z,84.30
2017-11-12T10:53:53.142Z,84.34
2017-11-12T10:56:25.812Z,85.18
2017-11-12T10:59:00.298Z,84.77
2017-11-12T11:01:36.334Z,85.16
2017-11-12T11:07:08.834Z,85.62
2017-11-12T11:09:42.206Z,85.57
2017-11-12T11:12:13.175Z,86.02
2017-11-12T11:14:44.473Z,86.48
2017-11-12T11:17:15.878Z,86.65
2017-11-12T11:19:46.955Z,86.99
2017-11-12T11:22:19.146Z,87.53
2017-11-12T11:24:51.360Z,87.50
2017-11-12T11:27:22.310Z,87.55
2017-11-12T11:29:54.767Z,87.14
2017-11-12T11:32:26.552Z,86.80
2017-11-12T11:34:57.637Z,86.79
2017-11-12T11:37:28.653Z,87.38
2017-11-12T11:39:59.801Z,87.67
2017-11-12T11:42:30.851Z,88.13
2017-11-12T11:45:01.859Z,88.27
2017-11-12T11:47:32.679Z,88.55
2017-11-12T11:50:03.466Z,88.50
2017-11-12T11:52:34.257Z,88.73
2017-11-12T11:55:06.304Z,88.33
2017-11-12T11:57:37.736Z,88.72
2017-11-12T12:00:13.744Z,89.57
2017-11-12T12:02:44.768Z,88.76
2017-11-12T12:05:16.944Z,88.69
2017-11-12T12:07:51.634Z,88.04
2017-11-12T12:10:24.843Z,87.59
2017-11-12T12:13:01.016Z,87.63
2017-11-12T12:15:38.173Z,88.17
2017-11-12T12:18:18.701Z,87.70
2017-11-12T12:20:49.876Z,88.00
2017-11-12T12:23:21.203Z,88.44
2017-11-12T12:26:02.122Z,88.36
2017-11-12T12:28:38.960Z,87.97
2017-11-12T12:31:11.707Z,87.23
2017-11-12T12:33:52.648Z,86.74
2017-11-12T12:36:23.784Z,87.75
2017-11-12T12:38:58.593Z,87.61
2017-11-12T12:41:30.982Z,87.27
2017-11-12T12:44:04.306Z,87.26
2017-11-12T12:46:41.220Z,87.76
2017-11-12T12:49:12.924Z,87.64
2017-11-12T12:51:47.052Z,88.41
2017-11-12T12:54:17.671Z,88.65
2017-11-12T12:56:49.021Z,88.07
2017-11-12T12:59:20.100Z,88.00
2017-11-12T13:02:01.860Z,87.92
2017-11-12T13:04:41.607Z,87.97
2017-11-12T13:07:31.968Z,87.64
2017-11-12T13:10:21.086Z,87.92
2017-11-12T13:13:03.192Z,88.06
2017-11-12T13:15:41.793Z,88.20
2017-11-12T13:18:13.411Z,88.07
2017-11-12T13:20:45.045Z,88.46
2017-11-12T13:23:16.109Z,87.96
2017-11-12T13:25:47.046Z,88.00
2017-11-12T13:28:23.294Z,87.99
2017-11-12T13:30:54.302Z,87.97
2017-11-12T13:33:25.500Z,88.00
2017-11-12T13:35:56.629Z,87.82
2017-11-12T13:38:28.209Z,87.66
2017-11-12T13:40:59.546Z,87.99
2017-11-12T13:43:30.883Z,87.77
2017-11-12T13:46:02.866Z,87.81
2017-11-12T13:48:34.728Z,87.79
2017-11-12T13:51:09.894Z,87.89
2017-11-12T13:53:40.666Z,87.96
2017-11-12T13:56:15.608Z,88.04
2017-11-12T13:58:46.814Z,88.18
2017-11-12T14:01:18.660Z,88.15
2017-11-12T14:03:51.012Z,87.94
2017-11-12T14:06:21.967Z,88.02
2017-11-12T14:08:53.951Z,88.09
2017-11-12T14:11:25.799Z,88.14
2017-11-12T14:13:56.350Z,87.76
2017-11-12T14:16:27.658Z,87.50
2017-11-12T14:18:58.706Z,87.73
2017-11-12T14:21:30.427Z,87.70
2017-11-12T14:24:01.800Z,87.50
2017-11-12T14:26:32.583Z,88.62
2017-11-12T14:29:03.272Z,90.55
2017-11-12T14:31:34.384Z,90.76
2017-11-12T14:34:05.061Z,91.27
2017-11-12T14:36:35.744Z,91.36
2017-11-12T14:39:07.183Z,90.01
2017-11-12T14:41:38.066Z,90.57
2017-11-12T14:44:09.642Z,92.06
2017-11-12T14:46:40.341Z,90.31
2017-11-12T14:49:11.592Z,91.15
2017-11-12T14:51:42.349Z,92.46
2017-11-12T14:54:14.945Z,92.73
2017-11-12T14:56:48.185Z,93.48
2017-11-12T14:59:19.080Z,92.22
2017-11-12T15:01:50.820Z,92.95
2017-11-12T15:04:21.905Z,92.08
2017-11-12T15:06:52.751Z,93.05
2017-11-12T15:09:26.041Z,93.62
2017-11-12T15:11:57.162Z,94.35
2017-11-12T15:14:28.806Z,95.16
2017-11-12T15:17:00.190Z,96.04
2017-11-12T15:19:31.387Z,95.88
2017-11-12T15:22:03.178Z,96.54
2017-11-12T15:24:35.432Z,96.47
2017-11-12T15:27:06.789Z,96.32
2017-11-12T15:29:37.434Z,97.15
2017-11-12T15:32:10.748Z,97.61
2017-11-12T15:37:17.956Z,98.41
2017-11-12T15:39:49.896Z,98.52
2017-11-12T15:42:20.993Z,99.29
2017-11-12T15:44:52.036Z,98.37
2017-11-12T15:47:24.747Z,98.46
2017-11-12T15:49:56.281Z,98.64
2017-11-12T15:52:27.098Z,98.90
2017-11-12T15:54:58.422Z,99.68
2017-11-12T15:57:30.825Z,99.31
2017-11-12T16:00:02.710Z,99.68
2017-11-12T16:02:33.756Z,100.00
2017-11-12T16:05:04.673Z,100.00
2017-11-12T16:07:39.053Z,100.00
2017-11-12T16:10:12.766Z,100.00
2017-11-12T16:12:45.981Z,99.53
2017-11-12T16:15:18.003Z,99.96
2017-11-12T16:17:52.109Z,99.26
2017-11-12T16:20:25.697Z,99.14
2017-11-12T16:22:59.393Z,99.38
2017-11-12T16:25:32.761Z,100.00
2017-11-12T16:28:05.757Z,99.46
2017-11-12T16:47:38.787Z,98.72
2017-11-12T17:08:39.117Z,98.58
2017-11-12T17:11:26.446Z,99.47
2017-11-12T17:13:57.309Z,98.80
2017-11-12T17:16:32.195Z,99.04
2017-11-12T17:19:03.551Z,98.71
2017-11-12T17:21:34.916Z,98.07
2017-11-12T17:24:05.932Z,98.14
2017-11-12T17:26:50.515Z,97.78
2017-11-12T17:29:23.032Z,97.15
2017-11-12T17:31:57.375Z,97.40
2017-11-12T17:34:28.385Z,96.91
2017-11-12T17:37:01.534Z,96.79
2017-11-12T17:39:33.666Z,96.42
2017-11-12T17:42:05.614Z,95.99
2017-11-12T17:44:40.264Z,96.63
2017-11-12T17:47:14.419Z,95.99
2017-11-12T17:49:47.089Z,95.95
2017-11-12T17:52:29.906Z,96.07
2017-11-12T17:55:13.747Z,96.20
2017-11-12T17:57:45.828Z,96.21
2017-11-12T18:00:18.070Z,96.28
2017-11-12T18:05:55.473Z,95.06
2017-11-12T18:11:55.374Z,95.42
2017-11-12T18:14:41.051Z,96.29
2017-11-12T18:17:19.616Z,95.52
2017-11-12T18:19:52.979Z,95.42
2017-11-12T18:23:58.568Z,95.63
2017-11-12T18:32:58.557Z,95.28
2017-11-12T18:35:36.277Z,95.22
2017-11-12T18:38:13.824Z,95.50
2017-11-12T18:43:37.798Z,95.95
2017-11-12T18:46:17.517Z,96.41
2017-11-12T18:52:29.384Z,95.81
2017-11-12T18:55:08.457Z,95.56
2017-11-12T18:57:45.974Z,95.91
2017-11-12T19:02:56.523Z,95.84
2017-11-12T19:05:31.289Z,96.63
2017-11-12T19:08:05.624Z,96.76
2017-11-12T19:10:40.237Z,96.46
2017-11-12T19:13:18.157Z,97.10
2017-11-12T19:15:53.217Z,97.46
2017-11-12T19:18:27.110Z,97.05
2017-11-12T19:21:01.168Z,97.01
2017-11-12T19:23:34.386Z,97.16
2017-11-12T19:26:11.060Z,96.90
2017-11-12T19:28:45.219Z,96.95
2017-11-12T19:31:21.033Z,97.67
2017-11-12T19:33:54.103Z,97.45
2017-11-12T19:36:25.895Z,97.72
2017-11-12T19:38:58.207Z,98.11
2017-11-12T19:45:35.875Z,97.44
2017-11-12T19:48:06.896Z,97.16
2017-11-12T19:50:38.053Z,97.20
2017-11-12T19:53:08.937Z,97.28
2017-11-12T19:55:40.041Z,97.14
2017-11-12T19:58:44.669Z,97.19
2017-11-12T20:01:51.726Z,97.53
2017-11-12T20:13:49.253Z,97.79
2017-11-12T20:16:31.221Z,95.97
2017-11-12T20:19:03.288Z,96.57
2017-11-12T20:21:35.166Z,96.37
2017-11-12T20:24:06.178Z,96.44
2017-11-12T20:26:37.832Z,96.96
2017-11-12T20:29:09.313Z,97.50
2017-11-12T20:31:40.092Z,97.74
2017-11-12T20:34:11.479Z,96.99
2017-11-12T20:50:51.938Z,97.12
2017-11-12T22:39:41.860Z,97.88
2017-11-12T22:42:14.712Z,98.44
2017-11-12T22:44:46.588Z,98.22
2017-11-12T22:47:18.319Z,97.64
2017-11-12T22:49:53.534Z,97.34
2017-11-12T22:52:28.995Z,97.89
2017-11-12T22:55:00.952Z,97.76
2017-11-12T22:57:49.633Z,97.38
2017-11-12T23:00:27.723Z,97.34
2017-11-12T23:03:17.180Z,97.39
2017-11-12T23:05:58.373Z,97.53
2017-11-12T23:08:29.515Z,97.72
2017-11-12T23:11:01.201Z,97.45
2017-11-12T23:13:53.047Z,97.78
2017-11-12T23:16:25.761Z,97.44
2017-11-12T23:19:07.350Z,97.76
2017-11-12T23:21:40.109Z,97.34
2017-11-12T23:24:15.803Z,97.72
2017-11-12T23:26:48.503Z,97.94
2017-11-12T23:29:19.609Z,97.53
2017-11-12T23:31:52.293Z,98.63
2017-11-12T23:34:28.362Z,97.73
2017-11-12T23:37:07.039Z,98.07
2017-11-12T23:39:38.434Z,97.81
2017-11-12T23:42:17.299Z,97.90
2017-11-12T23:44:48.263Z,98.07
2017-11-12T23:47:30.248Z,97.75
2017-11-12T23:50:03.322Z,98.07
2017-11-12T23:52:41.751Z,98.34
2017-11-12T23:55:14.838Z,98.42
2017-11-12T23:57:49.700Z,98.49
